createdAt,value
2022-10-09T00:01:01.957Z,101005.16
2022-10-09T00:03:28.725Z,101019.56
2022-10-09T00:05:55.300Z,101015.28
2022-10-09T00:08:21.905Z,101007.44
2022-10-09T00:10:48.504Z,101018.47
2022-10-09T00:13:15.399Z,101019.34
2022-10-09T00:15:44.630Z,101021.81
2022-10-09T00:18:14.844Z,101015.47
2022-10-09T00:20:43.767Z,101016.63
2022-10-09T00:23:11.498Z,101024.41
2022-10-09T00:25:38.408Z,101027.53
2022-10-09T00:28:05.407Z,101024.69
2022-10-09T00:30:32.400Z,101027.94
2022-10-09T00:32:59.054Z,101014.09
2022-10-09T00:35:27.019Z,101026.94
2022-10-09T00:37:53.623Z,101028.50
2022-10-09T00:40:20.198Z,101029.38
2022-10-09T00:42:47.053Z,101028.47
2022-10-09T00:45:19.747Z,101018.38
2022-10-09T00:47:50.282Z,101028.97
2022-10-09T00:50:19.825Z,101028.44
2022-10-09T00:52:53.091Z,101022.16
2022-10-09T00:55:21.224Z,101030.13
2022-10-09T00:57:47.968Z,101031.97
2022-10-09T01:00:15.043Z,101021.19
2022-10-09T01:02:41.672Z,101027.97
2022-10-09T01:05:09.969Z,101037.13
2022-10-09T01:07:42.893Z,101033.13
2022-10-09T01:10:24.190Z,101032.72
2022-10-09T01:12:59.254Z,101035.13
2022-10-09T01:15:31.667Z,101040.41
2022-10-09T01:18:06.794Z,101034.34
2022-10-09T01:20:41.639Z,101051.13
2022-10-09T01:23:53.314Z,101046.44
2022-10-09T01:27:06.720Z,101036.50
2022-10-09T01:29:38.573Z,101047.69
2022-10-09T01:32:07.658Z,101045.06
2022-10-09T01:34:35.075Z,101029.53
2022-10-09T01:37:02.839Z,101041.47
2022-10-09T01:39:31.250Z,101034.72
2022-10-09T01:41:58.231Z,101049.97
2022-10-09T01:44:28.016Z,101042.06
2022-10-09T01:46:56.375Z,101048.09
2022-10-09T01:49:37.026Z,101038.06
2022-10-09T01:52:15.597Z,101056.84
2022-10-09T01:54:52.215Z,101043.75
2022-10-09T01:57:29.504Z,101062.69
2022-10-09T01:59:58.764Z,101055.16
2022-10-09T02:02:27.858Z,101070.34
2022-10-09T02:04:55.359Z,101018.69
2022-10-09T02:07:24.029Z,101075.34
2022-10-09T02:09:51.330Z,101070.44
2022-10-09T02:12:20.303Z,101072.19
2022-10-09T02:14:46.965Z,101069.97
2022-10-09T02:17:18.164Z,101062.44
2022-10-09T02:19:49.950Z,101066.06
2022-10-09T02:22:19.871Z,101060.66
2022-10-09T02:24:47.275Z,101049.88
2022-10-09T02:27:16.009Z,101049.84
2022-10-09T02:29:44.688Z,101048.00
2022-10-09T02:32:12.569Z,101065.94
2022-10-09T02:34:39.380Z,101083.69
2022-10-09T02:37:07.951Z,101085.78
2022-10-09T02:39:34.911Z,101083.75
2022-10-09T02:42:01.761Z,101086.19
2022-10-09T02:44:28.423Z,101074.91
2022-10-09T02:46:55.080Z,101093.50
2022-10-09T02:49:21.675Z,101097.19
2022-10-09T02:51:48.226Z,101098.41
2022-10-09T02:54:16.144Z,101103.38
2022-10-09T02:56:42.834Z,101090.31
2022-10-09T02:59:09.383Z,101100.13
2022-10-09T03:01:36.132Z,101078.22
2022-10-09T03:04:02.930Z,101096.34
2022-10-09T03:06:29.736Z,101101.00
2022-10-09T03:08:56.548Z,101109.94
2022-10-09T03:11:25.507Z,101108.56
2022-10-09T03:13:52.195Z,101112.06
2022-10-09T03:16:20.387Z,101112.31
2022-10-09T03:18:47.997Z,101111.97
2022-10-09T03:21:16.939Z,101109.38
2022-10-09T03:23:44.047Z,101111.97
2022-10-09T03:26:12.883Z,101116.63
2022-10-09T03:28:42.687Z,101114.00
2022-10-09T03:31:22.401Z,101121.00
2022-10-09T03:33:57.182Z,101103.03
2022-10-09T03:36:23.716Z,101108.66
2022-10-09T03:38:50.268Z,101107.00
2022-10-09T03:41:16.851Z,101118.03
2022-10-09T03:43:44.877Z,101108.56
2022-10-09T03:46:12.314Z,101114.84
2022-10-09T03:48:38.969Z,101104.81
2022-10-09T03:51:05.789Z,101105.84
2022-10-09T03:53:32.364Z,101090.06
2022-10-09T03:55:58.988Z,101110.94
2022-10-09T03:58:25.665Z,101117.44
2022-10-09T04:00:54.013Z,101110.78
2022-10-09T04:03:20.919Z,101110.22
2022-10-09T04:05:47.522Z,101109.59
2022-10-09T04:08:14.597Z,101109.00
2022-10-09T04:10:41.195Z,101109.50
2022-10-09T04:13:07.771Z,101125.88
2022-10-09T04:15:34.758Z,101136.44
2022-10-09T04:18:02.814Z,101134.41
2022-10-09T04:20:29.398Z,101135.97
2022-10-09T04:22:55.981Z,101124.59
2022-10-09T04:25:22.605Z,101128.81
2022-10-09T04:27:49.167Z,101135.88
2022-10-09T04:30:15.816Z,101150.25
2022-10-09T04:32:42.699Z,101145.53
2022-10-09T04:35:10.637Z,101157.16
2022-10-09T04:37:37.212Z,101160.25
2022-10-09T04:40:04.361Z,101158.84
2022-10-09T04:42:30.952Z,101162.44
2022-10-09T04:44:57.506Z,101159.94
2022-10-09T04:47:24.141Z,101153.25
2022-10-09T04:49:50.703Z,101162.78
2022-10-09T04:52:18.636Z,101161.88
2022-10-09T04:54:45.254Z,101173.41
2022-10-09T04:57:11.871Z,101179.53
2022-10-09T04:59:38.417Z,101182.50
2022-10-09T05:02:05.078Z,101183.28
2022-10-09T05:04:31.808Z,101185.13
2022-10-09T05:06:58.391Z,101179.28
2022-10-09T05:09:26.388Z,101181.72
2022-10-09T05:11:52.922Z,101184.97
2022-10-09T05:14:19.492Z,101189.00
2022-10-09T05:17:11.748Z,101186.34
2022-10-09T05:19:33.157Z,101186.34
2022-10-09T05:22:00.091Z,101203.63
2022-10-09T05:24:28.882Z,101192.75
2022-10-09T05:26:55.471Z,101175.69
2022-10-09T05:29:22.107Z,101206.53
2022-10-09T05:31:49.797Z,101210.25
2022-10-09T05:34:16.515Z,101214.06
2022-10-09T05:36:43.133Z,101221.94
2022-10-09T05:39:09.734Z,101212.97
2022-10-09T05:41:37.679Z,101218.56
2022-10-09T05:44:04.686Z,101216.47
2022-10-09T05:46:31.447Z,101223.88
2022-10-09T05:48:59.535Z,101226.78
2022-10-09T05:51:27.739Z,101230.53
2022-10-09T05:53:54.812Z,101232.19
2022-10-09T05:56:23.506Z,101238.88
2022-10-09T05:58:53.349Z,101237.38
2022-10-09T06:01:20.915Z,101234.41
2022-10-09T06:03:52.450Z,101242.41
2022-10-09T06:06:21.398Z,101249.25
2022-10-09T06:08:48.339Z,101254.34
2022-10-09T06:11:17.263Z,101250.66
2022-10-09T06:13:44.375Z,101258.56
2022-10-09T06:16:13.777Z,101255.19
2022-10-09T06:18:40.645Z,101247.63
2022-10-09T06:21:07.798Z,101269.06
2022-10-09T06:23:35.139Z,101269.69
2022-10-09T06:26:03.860Z,101260.78
2022-10-09T06:28:31.876Z,101273.69
2022-10-09T06:31:01.802Z,101277.84
2022-10-09T06:33:31.465Z,101273.94
2022-10-09T06:36:09.665Z,101272.00
2022-10-09T06:38:37.440Z,101256.31
2022-10-09T06:41:05.060Z,101287.09
2022-10-09T06:43:31.753Z,101282.69
2022-10-09T06:46:01.358Z,101280.84
2022-10-09T06:48:30.364Z,101281.88
2022-10-09T06:51:01.020Z,101278.94
2022-10-09T06:53:27.616Z,101265.66
2022-10-09T06:55:55.475Z,101289.41
2022-10-09T06:58:22.405Z,101294.22
2022-10-09T07:00:48.939Z,101296.25
2022-10-09T07:03:15.545Z,101302.88
2022-10-09T07:05:43.546Z,101292.13
2022-10-09T07:08:10.084Z,101294.84
2022-10-09T07:10:36.660Z,101308.00
2022-10-09T07:13:03.978Z,101302.13
2022-10-09T07:15:30.548Z,101302.75
2022-10-09T07:17:57.244Z,101302.56
2022-10-09T07:20:23.881Z,101301.88
2022-10-09T07:22:52.177Z,101298.25
2022-10-09T07:25:19.075Z,101289.22
2022-10-09T07:27:45.757Z,101304.16
2022-10-09T07:30:12.752Z,101310.56
2022-10-09T07:32:39.730Z,101306.97
2022-10-09T07:35:07.120Z,101297.97
2022-10-09T07:37:48.874Z,101312.88
2022-10-09T07:40:20.120Z,101311.66
2022-10-09T07:42:49.708Z,101273.91
2022-10-09T07:45:17.050Z,101326.44
2022-10-09T07:47:43.950Z,101304.97
2022-10-09T07:50:10.518Z,101329.09
2022-10-09T07:52:37.135Z,101303.97
2022-10-09T07:55:04.250Z,101334.50
2022-10-09T07:57:32.214Z,101333.88
2022-10-09T08:00:01.100Z,101332.59
2022-10-09T08:02:33.386Z,101344.00
2022-10-09T08:05:00.336Z,101284.63
2022-10-09T08:07:45.593Z,101278.19
2022-10-09T08:10:14.215Z,101273.47
2022-10-09T08:12:45.748Z,101321.25
2022-10-09T08:15:12.493Z,101299.84
2022-10-09T08:17:39.262Z,101304.47
2022-10-09T08:20:06.998Z,101312.56
2022-10-09T08:22:35.492Z,101302.03
2022-10-09T08:25:05.725Z,101302.28
2022-10-09T08:27:35.156Z,101309.94
2022-10-09T08:30:03.889Z,101303.34
2022-10-09T08:32:30.626Z,101298.19
2022-10-09T08:34:57.274Z,101295.47
2022-10-09T08:37:25.029Z,101301.34
2022-10-09T08:39:51.677Z,101295.66
2022-10-09T08:42:27.607Z,101295.66
2022-10-09T08:44:55.131Z,101299.13
2022-10-09T08:47:26.146Z,101284.00
2022-10-09T08:49:58.937Z,101295.34
2022-10-09T08:52:34.787Z,101272.94
2022-10-09T08:55:13.440Z,101293.59
2022-10-09T08:57:40.537Z,101295.84
2022-10-09T09:00:20.614Z,101301.88
2022-10-09T09:03:26.193Z,101263.44
2022-10-09T09:06:03.593Z,101276.66
2022-10-09T09:08:47.605Z,101267.09
2022-10-09T09:11:32.976Z,101282.22
2022-10-09T09:14:19.233Z,101281.19
2022-10-09T09:16:59.488Z,101278.84
2022-10-09T09:19:43.081Z,101279.44
2022-10-09T09:22:32.995Z,101231.44
2022-10-09T09:25:13.810Z,101234.53
2022-10-09T09:27:54.748Z,101246.28
2022-10-09T09:30:27.216Z,101207.72
2022-10-09T09:33:01.760Z,101234.47
2022-10-09T09:35:47.316Z,101257.03
2022-10-09T09:38:14.462Z,101213.88
2022-10-09T09:40:47.549Z,101247.06
2022-10-09T09:43:21.459Z,101237.91
2022-10-09T09:45:53.416Z,101246.38
2022-10-09T09:48:33.361Z,101225.16
2022-10-09T09:51:29.098Z,101224.31
2022-10-09T09:53:56.738Z,101249.19
2022-10-09T09:56:47.779Z,101250.00
2022-10-09T09:59:27.693Z,101247.66
2022-10-09T10:01:59.770Z,101245.38
2022-10-09T10:04:26.410Z,101242.28
2022-10-09T10:07:03.459Z,101236.72
2022-10-09T10:09:33.150Z,101192.25
2022-10-09T10:12:01.322Z,101223.88
2022-10-09T10:14:28.503Z,101236.59
2022-10-09T10:16:56.911Z,101177.31
2022-10-09T10:19:26.604Z,101234.25
2022-10-09T10:21:59.611Z,101221.63
2022-10-09T10:24:43.104Z,101208.88
2022-10-09T10:27:29.513Z,101222.91
2022-10-09T10:30:07.672Z,101187.72
2022-10-09T10:32:44.161Z,101196.56
2022-10-09T10:35:14.526Z,101217.44
2022-10-09T10:37:53.216Z,101194.63
2022-10-09T10:40:26.366Z,101183.41
2022-10-09T10:43:04.118Z,101181.22
2022-10-09T10:45:40.930Z,101185.31
2022-10-09T10:48:20.197Z,101229.41
2022-10-09T10:50:54.445Z,101225.38
2022-10-09T10:53:37.932Z,101214.59
2022-10-09T10:56:13.895Z,101184.44
2022-10-09T10:58:53.035Z,101160.56
2022-10-09T11:01:33.582Z,101195.91
2022-10-09T11:04:43.588Z,101175.97
2022-10-09T11:07:24.286Z,101204.75
2022-10-09T11:10:08.986Z,101187.13
2022-10-09T11:12:48.136Z,101158.91
2022-10-09T11:15:34.705Z,101166.47
2022-10-09T11:18:16.148Z,101195.03
2022-10-09T11:21:02.690Z,101181.44
2022-10-09T11:23:50.054Z,101186.00
2022-10-09T11:26:31.167Z,101162.09
2022-10-09T11:29:04.085Z,101184.53
2022-10-09T11:31:36.990Z,101178.44
2022-10-09T11:34:12.287Z,101177.28
2022-10-09T11:36:41.389Z,101181.44
2022-10-09T11:39:14.237Z,101173.34
2022-10-09T11:41:43.276Z,101163.13
2022-10-09T11:44:35.615Z,101167.50
2022-10-09T11:47:11.748Z,101161.66
2022-10-09T11:49:50.467Z,101152.63
2022-10-09T11:52:24.486Z,101159.06
2022-10-09T11:54:51.139Z,101157.53
2022-10-09T11:57:29.085Z,101148.00
2022-10-09T12:00:05.374Z,101136.06
2022-10-09T12:02:32.167Z,101134.50
2022-10-09T12:04:58.951Z,101107.19
2022-10-09T12:07:32.367Z,101121.03
2022-10-09T12:10:02.700Z,101115.81
2022-10-09T12:12:31.534Z,101123.63
2022-10-09T12:14:58.131Z,101104.53
2022-10-09T12:17:35.123Z,101110.75
2022-10-09T12:20:07.355Z,101109.47
2022-10-09T12:22:37.370Z,101118.44
2022-10-09T12:25:06.894Z,101107.19
2022-10-09T12:27:39.236Z,101096.97
2022-10-09T12:30:21.138Z,101094.72
2022-10-09T12:32:54.029Z,101083.28
2022-10-09T12:35:25.196Z,101072.28
2022-10-09T12:37:53.056Z,101080.66
2022-10-09T12:40:23.082Z,101067.72
2022-10-09T12:42:53.069Z,101074.28
2022-10-09T12:45:22.984Z,101053.97
2022-10-09T12:47:51.007Z,101055.00
2022-10-09T12:50:23.072Z,101068.31
2022-10-09T12:52:51.978Z,101053.13
2022-10-09T12:55:26.260Z,101068.28
2022-10-09T12:58:02.142Z,101077.59
2022-10-09T13:00:29.951Z,101084.16
2022-10-09T13:02:56.758Z,101033.50
2022-10-09T13:05:42.752Z,101036.38
2022-10-09T13:08:27.153Z,101028.47
2022-10-09T13:10:57.934Z,101065.19
2022-10-09T13:13:28.592Z,101075.59
2022-10-09T13:16:01.048Z,101081.97
2022-10-09T13:18:28.482Z,101073.81
2022-10-09T13:21:00.654Z,101086.13
2022-10-09T13:23:33.002Z,101064.03
2022-10-09T13:26:03.686Z,101078.72
2022-10-09T13:28:32.110Z,101078.22
2022-10-09T13:31:06.900Z,101071.56
2022-10-09T13:33:33.980Z,101069.31
2022-10-09T13:36:00.658Z,101028.38
2022-10-09T13:38:30.207Z,101006.28
2022-10-09T13:41:00.142Z,101053.84
2022-10-09T13:43:30.383Z,101054.97
2022-10-09T13:45:58.910Z,101063.19
2022-10-09T13:48:25.598Z,101058.13
2022-10-09T13:50:52.774Z,101063.09
2022-10-09T13:53:19.458Z,101058.81
2022-10-09T13:55:46.131Z,101069.59
2022-10-09T13:58:12.741Z,101073.38
2022-10-09T14:00:39.695Z,101061.06
2022-10-09T14:03:07.964Z,101069.75
2022-10-09T14:05:34.659Z,101060.03
2022-10-09T14:08:01.323Z,101064.66
2022-10-09T14:10:28.535Z,101053.84
2022-10-09T14:12:55.141Z,101057.34
2022-10-09T14:15:21.879Z,101057.94
2022-10-09T14:17:49.644Z,101058.75
2022-10-09T14:20:18.094Z,101059.66
2022-10-09T14:22:44.999Z,101061.84
2022-10-09T14:25:13.116Z,101060.50
2022-10-09T14:27:42.812Z,101062.25
2022-10-09T14:30:11.873Z,101057.75
2022-10-09T14:32:38.581Z,101077.00
2022-10-09T14:35:08.432Z,101078.66
2022-10-09T14:37:41.663Z,101063.81
2022-10-09T14:40:09.877Z,101063.69
2022-10-09T14:42:36.915Z,101058.88
2022-10-09T14:45:04.584Z,101064.31
2022-10-09T14:47:31.481Z,101065.94
2022-10-09T14:49:58.044Z,101057.16
2022-10-09T14:52:24.737Z,101059.28
2022-10-09T14:54:53.016Z,101063.00
2022-10-09T14:57:19.655Z,101062.56
2022-10-09T14:59:46.239Z,101069.88
2022-10-09T15:02:14.354Z,101067.94
2022-10-09T15:04:40.989Z,101067.94
2022-10-09T15:07:07.745Z,101059.50
2022-10-09T15:09:34.418Z,101068.19
2022-10-09T15:12:02.344Z,101062.88
2022-10-09T15:14:29.185Z,101059.22
2022-10-09T15:16:55.850Z,101067.19
2022-10-09T15:19:22.574Z,101064.84
2022-10-09T15:21:49.275Z,101064.31
2022-10-09T15:24:15.983Z,101061.44
2022-10-09T15:26:42.575Z,101059.56
2022-10-09T15:29:11.455Z,101051.97
2022-10-09T15:31:39.527Z,101058.09
2022-10-09T15:34:07.227Z,101059.22
2022-10-09T15:36:36.369Z,101063.69
2022-10-09T15:39:03.764Z,101050.72
2022-10-09T15:41:32.703Z,101055.22
2022-10-09T15:44:01.627Z,101062.53
2022-10-09T15:46:30.331Z,101046.34
2022-10-09T15:48:57.509Z,101047.72
2022-10-09T15:51:24.873Z,101051.22
2022-10-09T15:53:52.733Z,101059.78
2022-10-09T15:56:21.495Z,101044.97
2022-10-09T15:58:48.597Z,101057.41
2022-10-09T16:01:16.325Z,101053.53
2022-10-09T16:03:45.043Z,101054.38
2022-10-09T16:06:13.071Z,101047.94
2022-10-09T16:08:42.867Z,101048.19
2022-10-09T16:11:11.826Z,101041.63
2022-10-09T16:13:42.601Z,101052.88
2022-10-09T16:16:11.672Z,101047.31
2022-10-09T16:18:38.434Z,101045.56
2022-10-09T16:21:07.741Z,101048.75
2022-10-09T16:23:34.886Z,101050.19
2022-10-09T16:26:02.719Z,101047.75
2022-10-09T16:28:30.642Z,101055.44
2022-10-09T16:30:58.330Z,101061.53
2022-10-09T16:33:25.363Z,101054.63
2022-10-09T16:35:52.043Z,101062.56
2022-10-09T16:38:20.492Z,101068.00
2022-10-09T16:41:04.289Z,101061.31
2022-10-09T16:43:32.834Z,101061.00
2022-10-09T16:46:08.958Z,101070.13
2022-10-09T16:48:35.835Z,101062.41
2022-10-09T16:51:02.410Z,101037.81
2022-10-09T16:53:30.422Z,101069.66
2022-10-09T16:56:07.012Z,101056.88
2022-10-09T16:58:33.866Z,101073.34
2022-10-09T17:01:01.175Z,101080.59
2022-10-09T17:03:27.850Z,101078.34
2022-10-09T17:05:54.566Z,101077.31
2022-10-09T17:08:22.312Z,101070.28
2022-10-09T17:10:50.466Z,101069.81
2022-10-09T17:13:17.196Z,101079.66
2022-10-09T17:15:44.172Z,101078.13
2022-10-09T17:18:11.967Z,101085.00
2022-10-09T17:20:38.944Z,101035.81
2022-10-09T17:23:05.907Z,101063.75
2022-10-09T17:25:32.834Z,101086.28
2022-10-09T17:28:07.854Z,101036.94
2022-10-09T17:30:38.532Z,101077.56
2022-10-09T17:33:05.489Z,101089.84
2022-10-09T17:35:32.240Z,101090.66
2022-10-09T17:37:58.924Z,101082.91
2022-10-09T17:40:25.644Z,101092.75
2022-10-09T17:42:52.539Z,101094.25
2022-10-09T17:45:20.787Z,101096.00
2022-10-09T17:47:47.518Z,101095.91
2022-10-09T17:50:14.116Z,101095.03
2022-10-09T17:52:40.725Z,101083.88
2022-10-09T17:55:08.471Z,101092.88
2022-10-09T17:57:35.035Z,101106.97
2022-10-09T18:00:01.978Z,101094.50
2022-10-09T18:02:30.091Z,101094.94
2022-10-09T18:04:56.675Z,101095.94
2022-10-09T18:07:24.663Z,101084.88
2022-10-09T18:10:00.410Z,101078.63
2022-10-09T18:12:29.855Z,101056.91
2022-10-09T18:14:56.324Z,101087.59
2022-10-09T18:17:22.974Z,101037.56
2022-10-09T18:19:51.044Z,101099.63
2022-10-09T18:22:17.944Z,101086.09
2022-10-09T18:24:49.328Z,101092.09
2022-10-09T18:27:15.935Z,101082.66
2022-10-09T18:29:42.712Z,101085.31
2022-10-09T18:34:57.506Z,101094.41
2022-10-09T18:37:24.103Z,101086.13
2022-10-09T18:39:50.702Z,101095.84
2022-10-09T18:42:17.311Z,101102.59
2022-10-09T18:44:43.924Z,101105.25
2022-10-09T18:47:14.215Z,101110.00
2022-10-09T18:49:47.662Z,101113.59
2022-10-09T18:52:16.265Z,101104.88
2022-10-09T18:54:45.867Z,101115.81
2022-10-09T18:57:12.745Z,101123.47
2022-10-09T18:59:39.840Z,101109.56
2022-10-09T19:02:06.478Z,101129.53
2022-10-09T19:04:33.608Z,101116.38
2022-10-09T19:07:00.225Z,101131.53
2022-10-09T19:09:28.171Z,101122.03
2022-10-09T19:11:54.825Z,101114.97
2022-10-09T19:14:21.428Z,101118.97
2022-10-09T19:16:48.162Z,101125.19
2022-10-09T19:19:15.003Z,101121.66
2022-10-09T19:21:41.623Z,101121.34
2022-10-09T19:24:08.174Z,101124.44
2022-10-09T19:26:36.979Z,101112.84
2022-10-09T19:29:04.922Z,101118.81
2022-10-09T19:31:32.074Z,101117.00
2022-10-09T19:34:00.009Z,101119.16
2022-10-09T19:36:26.688Z,101117.16
2022-10-09T19:38:53.255Z,101120.25
2022-10-09T19:41:19.946Z,101120.00
2022-10-09T19:43:47.876Z,101131.91
2022-10-09T19:46:16.736Z,101130.59
2022-10-09T19:48:43.379Z,101150.16
2022-10-09T19:51:11.878Z,101160.47
2022-10-09T19:53:38.834Z,101164.28
2022-10-09T19:56:09.864Z,101159.41
2022-10-09T19:58:39.293Z,101166.41
2022-10-09T20:01:07.128Z,101159.81
2022-10-09T20:03:33.790Z,101142.56
2022-10-09T20:06:01.372Z,101160.28
2022-10-09T20:08:27.999Z,101145.81
2022-10-09T20:10:58.076Z,101154.47
2022-10-09T20:13:24.670Z,101147.56
2022-10-09T20:15:51.247Z,101129.34
2022-10-09T20:18:19.183Z,101133.69
2022-10-09T20:20:46.947Z,101153.97
2022-10-09T20:23:13.721Z,101151.47
2022-10-09T20:25:40.336Z,101150.31
2022-10-09T20:28:07.010Z,101154.28
2022-10-09T20:30:33.743Z,101152.16
2022-10-09T20:33:01.081Z,101138.31
2022-10-09T20:35:30.549Z,101162.03
2022-10-09T20:37:57.864Z,101162.69
2022-10-09T20:40:24.551Z,101163.16
2022-10-09T20:42:51.511Z,101155.81
2022-10-09T20:45:18.435Z,101154.78
2022-10-09T20:47:44.987Z,101164.31
2022-10-09T20:50:11.589Z,101157.97
2022-10-09T20:52:39.477Z,101144.91
2022-10-09T20:55:07.233Z,101154.69
2022-10-09T20:57:33.842Z,101161.47
2022-10-09T21:00:00.441Z,101157.41
2022-10-09T21:02:27.076Z,101162.53
2022-10-09T21:04:53.699Z,101154.22
2022-10-09T21:07:20.306Z,101170.00
2022-10-09T21:09:48.296Z,101163.09
2022-10-09T21:12:15.052Z,101167.75
2022-10-09T21:14:41.604Z,101163.63
2022-10-09T21:17:08.248Z,101166.25
2022-10-09T21:19:34.896Z,101166.59
2022-10-09T21:22:03.631Z,101172.84
2022-10-09T21:24:30.316Z,101150.06
2022-10-09T21:26:59.388Z,101178.66
2022-10-09T21:29:25.943Z,101185.53
2022-10-09T21:31:52.545Z,101184.69
2022-10-09T21:34:19.135Z,101195.22
2022-10-09T21:37:19.351Z,101186.16
2022-10-09T21:39:34.886Z,101188.19
2022-10-09T21:42:02.783Z,101170.03
2022-10-09T21:44:29.335Z,101169.06
2022-10-09T21:46:56.591Z,101168.91
2022-10-09T21:49:25.337Z,101168.97
2022-10-09T21:51:52.156Z,101170.13
2022-10-09T21:54:19.005Z,101162.28
2022-10-09T21:56:45.586Z,101172.19
2022-10-09T21:59:13.523Z,101152.63
2022-10-09T22:01:40.147Z,101169.25
2022-10-09T22:04:06.745Z,101164.56
2022-10-09T22:06:33.324Z,101169.25
2022-10-09T22:09:00.003Z,101166.03
2022-10-09T22:11:27.043Z,101157.09
2022-10-09T22:13:55.263Z,101175.41
2022-10-09T22:16:23.676Z,101178.34
2022-10-09T22:18:50.251Z,101166.69
2022-10-09T22:21:17.837Z,101177.56
2022-10-09T22:23:44.835Z,101176.28
2022-10-09T22:26:13.477Z,101179.81
2022-10-09T22:28:40.458Z,101183.25
2022-10-09T22:31:10.554Z,101178.13
2022-10-09T22:33:39.405Z,101188.97
2022-10-09T22:36:08.688Z,101190.00
2022-10-09T22:38:36.816Z,101188.47
2022-10-09T22:41:08.227Z,101175.44
2022-10-09T22:43:35.351Z,101183.50
2022-10-09T22:46:06.024Z,101187.88
2022-10-09T22:48:32.614Z,101176.84
2022-10-09T22:51:03.533Z,101177.44
2022-10-09T22:53:30.089Z,101173.63
2022-10-09T22:55:56.634Z,101165.13
2022-10-09T22:58:23.238Z,101168.97
2022-10-09T23:00:50.255Z,101168.13
2022-10-09T23:03:17.713Z,101165.81
2022-10-09T23:05:44.408Z,101166.09
2022-10-09T23:08:12.619Z,101163.91
2022-10-09T23:10:39.648Z,101163.59
2022-10-09T23:13:06.441Z,101163.41
2022-10-09T23:15:34.696Z,101168.88
2022-10-09T23:18:01.234Z,101167.53
2022-10-09T23:20:27.812Z,101173.28
2022-10-09T23:22:54.546Z,101158.94
2022-10-09T23:25:22.470Z,101157.66
2022-10-09T23:27:49.031Z,101149.72
2022-10-09T23:30:15.748Z,101153.94
2022-10-09T23:32:42.314Z,101146.94
2022-10-09T23:35:09.248Z,101149.94
2022-10-09T23:37:35.816Z,101158.00
2022-10-09T23:40:02.370Z,101151.78
2022-10-09T23:42:30.308Z,101154.22
2022-10-09T23:44:56.908Z,101147.94
2022-10-09T23:47:23.531Z,101141.13
2022-10-09T23:49:50.073Z,101140.16
2022-10-09T23:52:16.668Z,101140.59
2022-10-09T23:54:43.341Z,101142.72
2022-10-09T23:57:09.895Z,101142.28
2022-10-09T23:59:37.864Z,101139.91
